createdAt,value
2017-08-13T00:01:36.878Z,15.30
2017-08-13T00:04:03.157Z,16.20
2017-08-13T00:06:29.393Z,15.40
2017-08-13T00:08:56.387Z,14.97
2017-08-13T00:11:22.639Z,15.10
2017-08-13T00:13:48.868Z,16.40
2017-08-13T00:16:15.153Z,16.57
2017-08-13T00:18:41.396Z,16.77
2017-08-13T00:21:07.616Z,16.83
2017-08-13T00:23:33.855Z,17.57
2017-08-13T00:26:00.093Z,18.13
2017-08-13T00:28:26.336Z,16.50
2017-08-13T00:30:52.603Z,17.33
2017-08-13T00:33:19.565Z,17.80
2017-08-13T00:35:45.846Z,19.57
2017-08-13T00:38:12.131Z,20.80
2017-08-13T00:40:38.351Z,19.53
2017-08-13T00:43:04.608Z,19.83
2017-08-13T00:45:30.896Z,20.77
2017-08-13T00:47:57.885Z,23.17
2017-08-13T00:50:24.117Z,21.53
2017-08-13T00:52:50.457Z,23.23
2017-08-13T00:55:16.696Z,21.40
2017-08-13T00:57:42.957Z,22.50
2017-08-13T01:00:09.979Z,22.00
2017-08-13T01:02:36.974Z,22.00
2017-08-13T01:05:03.209Z,22.00
2017-08-13T01:07:29.432Z,21.10
2017-08-13T01:09:55.661Z,21.80
2017-08-13T01:12:21.909Z,21.60
2017-08-13T01:14:48.888Z,21.37
2017-08-13T01:17:15.268Z,20.50
2017-08-13T01:19:41.762Z,20.43
2017-08-13T01:22:08.719Z,19.73
2017-08-13T01:24:35.700Z,19.87
2017-08-13T01:27:01.929Z,19.33
2017-08-13T01:29:28.181Z,18.23
2017-08-13T01:31:54.395Z,17.57
2017-08-13T01:34:20.626Z,17.80
2017-08-13T01:36:46.857Z,18.10
2017-08-13T01:39:13.101Z,16.47
2017-08-13T01:41:39.345Z,17.50
2017-08-13T01:44:05.587Z,16.23
2017-08-13T01:46:32.554Z,16.33
2017-08-13T01:48:58.798Z,17.50
2017-08-13T01:51:31.850Z,18.07
2017-08-13T01:53:58.845Z,17.57
2017-08-13T01:56:25.072Z,17.50
2017-08-13T01:58:51.321Z,17.70
2017-08-13T02:01:17.616Z,17.70
2017-08-13T02:03:43.858Z,17.27
2017-08-13T02:06:10.109Z,17.10
2017-08-13T02:08:36.583Z,16.60
2017-08-13T02:11:02.842Z,17.20
2017-08-13T02:13:29.065Z,16.97
2017-08-13T02:15:55.325Z,16.07
2017-08-13T02:18:21.574Z,16.47
2017-08-13T02:20:48.570Z,16.53
2017-08-13T02:23:14.800Z,16.33
2017-08-13T02:25:41.025Z,17.23
2017-08-13T02:28:07.275Z,15.43
2017-08-13T02:30:33.510Z,16.47
2017-08-13T02:32:59.742Z,15.63
2017-08-13T02:35:25.959Z,15.37
2017-08-13T02:37:52.207Z,15.80
2017-08-13T02:40:18.444Z,14.93
2017-08-13T02:42:45.440Z,16.30
2017-08-13T02:45:11.712Z,15.77
2017-08-13T02:47:38.969Z,16.77
2017-08-13T02:50:05.964Z,16.40
2017-08-13T02:52:32.232Z,16.63
2017-08-13T02:54:58.460Z,17.00
2017-08-13T02:57:24.680Z,16.23
2017-08-13T02:59:50.905Z,17.17
2017-08-13T03:02:17.132Z,16.63
2017-08-13T03:04:43.373Z,17.00
2017-08-13T03:07:09.692Z,15.13
2017-08-13T03:09:35.928Z,16.07
2017-08-13T03:12:02.147Z,15.47
2017-08-13T03:14:28.428Z,15.80
2017-08-13T03:16:54.709Z,16.10
2017-08-13T03:19:20.925Z,15.67
2017-08-13T03:21:48.052Z,16.33
2017-08-13T03:24:14.295Z,17.20
2017-08-13T03:26:40.534Z,14.73
2017-08-13T03:29:06.770Z,15.43
2017-08-13T03:31:32.989Z,13.87
2017-08-13T03:33:59.248Z,14.80
2017-08-13T03:36:26.224Z,15.20
2017-08-13T03:38:52.448Z,15.17
2017-08-13T03:41:18.688Z,14.10
2017-08-13T03:43:44.926Z,15.97
2017-08-13T03:46:11.176Z,15.43
2017-08-13T03:48:37.409Z,17.03
2017-08-13T03:51:03.652Z,16.40
2017-08-13T03:53:29.869Z,16.00
2017-08-13T03:55:56.120Z,15.57
2017-08-13T03:58:23.090Z,15.60
2017-08-13T04:00:49.329Z,14.57
2017-08-13T04:03:15.585Z,15.43
2017-08-13T04:05:41.828Z,15.93
2017-08-13T04:08:08.063Z,16.60
2017-08-13T04:10:34.316Z,15.10
2017-08-13T04:13:01.282Z,15.43
2017-08-13T04:15:27.510Z,14.37
2017-08-13T04:17:53.743Z,17.10
2017-08-13T04:20:27.033Z,15.53
2017-08-13T04:22:53.425Z,16.93
2017-08-13T04:25:19.665Z,16.00
2017-08-13T04:27:45.948Z,15.57
2017-08-13T04:30:12.173Z,14.43
2017-08-13T04:32:38.422Z,15.40
2017-08-13T04:35:04.671Z,15.83
2017-08-13T04:37:31.657Z,16.47
2017-08-13T04:39:57.886Z,16.17
2017-08-13T04:42:24.139Z,15.40
2017-08-13T04:44:50.367Z,14.47
2017-08-13T04:47:16.584Z,15.97
2017-08-13T04:49:42.801Z,17.10
2017-08-13T04:52:09.034Z,15.00
2017-08-13T04:54:35.286Z,15.30
2017-08-13T04:57:01.511Z,14.57
2017-08-13T04:59:27.763Z,14.73
2017-08-13T05:01:54.011Z,13.90
2017-08-13T05:04:20.976Z,15.37
2017-08-13T05:06:47.204Z,15.83
2017-08-13T05:09:13.453Z,15.67
2017-08-13T05:11:39.673Z,15.17
2017-08-13T05:14:05.905Z,14.07
2017-08-13T05:16:32.151Z,14.03
2017-08-13T05:18:58.384Z,16.40
2017-08-13T05:21:24.641Z,15.07
2017-08-13T05:23:51.609Z,14.97
2017-08-13T05:26:17.848Z,14.20
2017-08-13T05:28:44.069Z,14.20
2017-08-13T05:31:10.311Z,14.93
2017-08-13T05:33:36.540Z,13.20
2017-08-13T05:36:02.785Z,13.50
2017-08-13T05:38:29.014Z,14.47
2017-08-13T05:40:55.298Z,14.13
2017-08-13T05:43:21.603Z,13.97
2017-08-13T05:45:47.906Z,14.50
2017-08-13T05:48:14.150Z,14.30
2017-08-13T05:50:40.391Z,14.43
2017-08-13T05:53:06.639Z,13.90
2017-08-13T05:55:32.892Z,14.00
2017-08-13T05:57:59.141Z,14.93
2017-08-13T06:00:25.467Z,13.60
2017-08-13T06:02:51.730Z,13.10
2017-08-13T06:05:18.007Z,14.03
2017-08-13T06:07:44.281Z,13.33
2017-08-13T06:10:10.512Z,13.20
2017-08-13T06:12:36.785Z,13.00
2017-08-13T06:15:03.063Z,13.67
2017-08-13T06:17:29.303Z,13.67
2017-08-13T06:19:55.542Z,11.60
2017-08-13T06:22:22.543Z,13.37
2017-08-13T06:24:48.792Z,12.07
2017-08-13T06:27:15.021Z,12.30
2017-08-13T06:29:41.301Z,12.40
2017-08-13T06:32:07.532Z,12.80
2017-08-13T06:34:33.810Z,12.87
2017-08-13T06:37:00.077Z,13.63
2017-08-13T06:39:27.064Z,14.80
2017-08-13T06:41:53.332Z,13.03
2017-08-13T06:44:19.591Z,11.43
2017-08-13T06:46:45.850Z,12.00
2017-08-13T06:49:12.127Z,12.40
2017-08-13T06:51:39.382Z,12.40
2017-08-13T06:54:05.639Z,12.00
2017-08-13T06:56:31.914Z,12.70
2017-08-13T06:58:58.171Z,13.30
2017-08-13T07:01:25.248Z,12.77
2017-08-13T07:03:51.498Z,12.87
2017-08-13T07:06:17.775Z,12.20
2017-08-13T07:08:44.748Z,11.20
2017-08-13T07:11:11.013Z,9.40
2017-08-13T07:13:37.268Z,9.40
2017-08-13T07:16:04.253Z,10.03
2017-08-13T07:18:30.535Z,11.07
2017-08-13T07:20:57.525Z,10.30
2017-08-13T07:23:23.768Z,10.10
2017-08-13T07:25:50.032Z,10.87
2017-08-13T07:28:16.298Z,10.23
2017-08-13T07:30:42.555Z,9.20
2017-08-13T07:33:08.825Z,8.17
2017-08-13T07:35:35.823Z,8.60
2017-08-13T07:38:02.092Z,8.80
2017-08-13T07:40:28.365Z,8.30
2017-08-13T07:42:54.657Z,8.33
2017-08-13T07:45:21.662Z,7.67
2017-08-13T07:47:48.908Z,7.80
2017-08-13T07:50:15.177Z,7.77
2017-08-13T07:52:41.449Z,7.10
2017-08-13T07:55:07.725Z,6.57
2017-08-13T07:57:33.954Z,5.93
2017-08-13T08:00:00.222Z,6.40
2017-08-13T08:02:26.480Z,6.50
2017-08-13T08:04:52.753Z,5.57
2017-08-13T08:07:19.760Z,6.37
2017-08-13T08:09:46.031Z,6.07
2017-08-13T08:12:12.265Z,5.30
2017-08-13T08:14:39.298Z,4.80
2017-08-13T08:17:05.546Z,3.90
2017-08-13T08:19:32.548Z,5.90
2017-08-13T08:21:58.795Z,7.10
2017-08-13T08:24:25.805Z,6.80
2017-08-13T08:26:52.111Z,5.53
2017-08-13T08:29:18.361Z,5.00
2017-08-13T08:31:44.626Z,5.30
2017-08-13T08:34:10.853Z,5.63
2017-08-13T08:36:37.096Z,4.27
2017-08-13T08:39:03.388Z,4.60
2017-08-13T08:41:29.640Z,5.20
2017-08-13T08:43:55.887Z,4.47
2017-08-13T08:46:22.311Z,3.60
2017-08-13T08:48:49.305Z,3.87
2017-08-13T08:51:15.544Z,4.70
2017-08-13T08:53:41.822Z,5.10
2017-08-13T08:56:08.164Z,5.00
2017-08-13T08:58:35.232Z,5.37
2017-08-13T09:01:01.500Z,5.60
2017-08-13T09:03:27.784Z,4.67
2017-08-13T09:05:54.034Z,4.70
2017-08-13T09:08:21.089Z,3.43
2017-08-13T09:10:47.356Z,3.77
2017-08-13T09:13:13.849Z,2.73
2017-08-13T09:15:40.110Z,3.30
2017-08-13T09:18:06.381Z,2.80
2017-08-13T09:20:32.713Z,2.87
2017-08-13T09:22:59.110Z,2.90
2017-08-13T09:25:25.389Z,2.93
2017-08-13T09:27:51.642Z,2.97
2017-08-13T09:30:17.924Z,3.03
2017-08-13T09:32:44.169Z,2.70
2017-08-13T09:35:10.436Z,3.17
2017-08-13T09:37:36.693Z,3.23
2017-08-13T09:40:03.689Z,3.17
2017-08-13T09:42:29.939Z,3.00
2017-08-13T09:44:56.177Z,3.10
2017-08-13T09:47:22.444Z,3.03
2017-08-13T09:49:48.696Z,2.67
2017-08-13T09:52:14.944Z,2.93
2017-08-13T09:54:41.192Z,3.10
2017-08-13T09:57:07.420Z,3.10
2017-08-13T09:59:33.676Z,3.83
2017-08-13T10:02:01.549Z,2.90
2017-08-13T10:04:28.553Z,3.40
2017-08-13T10:06:54.791Z,3.33
2017-08-13T10:09:21.084Z,3.33
2017-08-13T10:11:47.355Z,2.90
2017-08-13T10:14:13.670Z,2.90
2017-08-13T10:16:39.921Z,3.30
2017-08-13T10:19:06.156Z,4.10
2017-08-13T10:21:33.175Z,3.00
2017-08-13T10:23:59.424Z,3.47
2017-08-13T10:26:26.431Z,3.10
2017-08-13T10:28:52.683Z,3.90
2017-08-13T10:31:18.937Z,3.10
2017-08-13T10:33:45.938Z,2.67
2017-08-13T10:36:12.223Z,3.20
2017-08-13T10:38:38.488Z,2.53
2017-08-13T10:41:04.738Z,2.97
2017-08-13T10:43:31.012Z,2.93
2017-08-13T10:45:57.265Z,2.80
2017-08-13T10:48:23.572Z,3.90
2017-08-13T10:50:49.841Z,3.50
2017-08-13T10:53:16.122Z,3.53
2017-08-13T10:55:43.128Z,4.30
2017-08-13T10:58:09.393Z,4.63
2017-08-13T11:00:35.642Z,4.67
2017-08-13T11:03:01.917Z,4.93
2017-08-13T11:05:28.149Z,4.33
2017-08-13T11:07:54.377Z,4.10
2017-08-13T11:10:21.294Z,4.60
2017-08-13T11:12:47.561Z,4.13
2017-08-13T11:15:14.594Z,3.67
2017-08-13T11:17:40.828Z,4.47
2017-08-13T11:20:07.166Z,4.23
2017-08-13T11:22:34.179Z,3.63
2017-08-13T11:25:00.442Z,4.60
2017-08-13T11:27:26.709Z,4.80
2017-08-13T11:29:53.222Z,3.80
2017-08-13T11:32:20.217Z,4.13
2017-08-13T11:34:46.457Z,5.30
2017-08-13T11:37:12.750Z,3.30
2017-08-13T11:39:39.011Z,3.13
2017-08-13T11:42:05.270Z,3.87
2017-08-13T11:44:32.256Z,3.40
2017-08-13T11:46:58.517Z,3.27
2017-08-13T11:49:24.812Z,3.37
2017-08-13T11:51:51.088Z,2.90
2017-08-13T11:54:17.323Z,2.70
2017-08-13T11:56:44.355Z,3.37
2017-08-13T11:59:10.589Z,2.80
2017-08-13T12:01:36.834Z,2.60
2017-08-13T12:04:03.834Z,2.43
2017-08-13T12:06:30.146Z,2.63
2017-08-13T12:08:56.396Z,3.43
2017-08-13T12:11:22.629Z,2.73
2017-08-13T12:13:48.898Z,2.10
2017-08-13T12:16:15.141Z,2.10
2017-08-13T12:18:42.120Z,3.07
2017-08-13T12:21:08.393Z,2.50
2017-08-13T12:23:34.647Z,2.23
2017-08-13T12:26:01.647Z,2.63
2017-08-13T12:28:27.945Z,2.17
2017-08-13T12:30:54.211Z,2.23
2017-08-13T12:33:20.458Z,2.00
2017-08-13T12:35:46.752Z,2.10
2017-08-13T12:38:13.010Z,2.43
2017-08-13T12:40:39.273Z,1.87
2017-08-13T12:43:05.503Z,2.50
2017-08-13T12:45:31.754Z,2.40
2017-08-13T12:47:57.991Z,2.60
2017-08-13T12:50:31.102Z,2.10
2017-08-13T12:52:57.428Z,2.00
2017-08-13T12:55:23.717Z,1.70
2017-08-13T12:57:49.949Z,1.80
2017-08-13T13:00:16.863Z,2.10
2017-08-13T13:02:43.231Z,1.60
2017-08-13T13:05:09.476Z,1.53
2017-08-13T13:07:35.735Z,1.97
2017-08-13T13:10:02.754Z,1.70
2017-08-13T13:12:29.076Z,1.90
2017-08-13T13:14:55.339Z,1.70
2017-08-13T13:17:21.585Z,2.10
2017-08-13T13:19:48.582Z,1.97
2017-08-13T13:22:14.839Z,2.20
2017-08-13T13:24:41.089Z,1.80
2017-08-13T13:27:07.373Z,1.50
2017-08-13T13:29:33.627Z,2.07
2017-08-13T13:31:59.884Z,1.90
2017-08-13T13:34:26.153Z,1.63
2017-08-13T13:36:52.426Z,1.60
2017-08-13T13:39:18.684Z,1.70
2017-08-13T13:41:44.962Z,1.67
2017-08-13T13:44:11.226Z,2.10
2017-08-13T13:46:37.542Z,1.60
2017-08-13T13:49:04.521Z,1.83
2017-08-13T13:51:30.814Z,1.90
2017-08-13T13:53:57.838Z,1.83
2017-08-13T13:56:24.086Z,2.10
2017-08-13T13:58:51.095Z,2.17
2017-08-13T14:01:17.358Z,2.00
2017-08-13T14:03:44.383Z,2.73
2017-08-13T14:06:10.622Z,2.13
2017-08-13T14:08:36.886Z,2.10
2017-08-13T14:11:03.143Z,1.90
2017-08-13T14:13:29.430Z,2.10
2017-08-13T14:15:56.430Z,2.67
2017-08-13T14:18:22.702Z,2.27
2017-08-13T14:20:48.988Z,2.50
2017-08-13T14:23:15.273Z,2.40
2017-08-13T14:25:42.285Z,2.57
2017-08-13T14:28:08.533Z,2.30
2017-08-13T14:30:35.549Z,2.47
2017-08-13T14:33:01.833Z,2.73
2017-08-13T14:35:28.149Z,2.30
2017-08-13T14:37:54.484Z,2.30
2017-08-13T14:40:20.801Z,2.20
2017-08-13T14:42:47.087Z,1.93
2017-08-13T14:45:13.376Z,2.23
2017-08-13T14:47:39.673Z,2.20
2017-08-13T14:50:05.964Z,2.40
2017-08-13T14:52:33.007Z,2.20
2017-08-13T14:54:59.321Z,2.70
2017-08-13T14:57:25.630Z,2.10
2017-08-13T14:59:51.901Z,2.00
2017-08-13T15:02:18.213Z,2.60
2017-08-13T15:04:44.512Z,2.30
2017-08-13T15:07:10.784Z,2.83
2017-08-13T15:09:37.063Z,2.20
2017-08-13T15:12:03.349Z,2.30
2017-08-13T15:14:29.628Z,2.33
2017-08-13T15:16:55.896Z,2.37
2017-08-13T15:19:22.186Z,2.73
2017-08-13T15:21:48.496Z,2.50
2017-08-13T15:24:14.792Z,2.23
2017-08-13T15:26:41.098Z,1.83
2017-08-13T15:29:07.414Z,1.93
2017-08-13T15:31:33.685Z,2.00
2017-08-13T15:33:59.999Z,2.00
2017-08-13T15:36:26.257Z,1.90
2017-08-13T15:38:52.660Z,2.10
2017-08-13T15:41:18.921Z,2.20
2017-08-13T15:43:45.196Z,2.17
2017-08-13T15:46:11.457Z,1.80
2017-08-13T15:48:37.741Z,2.20
2017-08-13T15:51:04.028Z,1.97
2017-08-13T15:53:31.062Z,2.17
2017-08-13T15:55:57.332Z,2.43
2017-08-13T15:58:23.631Z,1.77
2017-08-13T16:00:49.929Z,1.53
2017-08-13T16:03:16.220Z,1.60
2017-08-13T16:05:42.504Z,2.27
2017-08-13T16:08:08.784Z,1.77
2017-08-13T16:10:35.085Z,2.07
2017-08-13T16:13:02.123Z,1.77
2017-08-13T16:15:29.184Z,1.97
2017-08-13T16:17:56.190Z,1.70
2017-08-13T16:20:22.484Z,2.27
2017-08-13T16:22:48.789Z,1.60
2017-08-13T16:25:15.823Z,2.30
2017-08-13T16:27:42.077Z,2.43
2017-08-13T16:30:09.159Z,2.10
2017-08-13T16:32:35.431Z,2.33
2017-08-13T16:35:01.699Z,2.00
2017-08-13T16:37:27.988Z,2.23
2017-08-13T16:39:54.298Z,2.10
2017-08-13T16:42:20.567Z,2.30
2017-08-13T16:44:46.864Z,2.60
2017-08-13T16:47:13.164Z,2.37
2017-08-13T16:49:39.451Z,1.57
2017-08-13T16:52:05.758Z,1.77
2017-08-13T16:54:32.037Z,1.63
2017-08-13T16:56:58.342Z,1.90
2017-08-13T16:59:24.613Z,2.47
2017-08-13T17:01:51.143Z,1.50
2017-08-13T17:04:17.525Z,1.73
2017-08-13T17:06:44.550Z,1.80
2017-08-13T17:09:10.824Z,1.57
2017-08-13T17:11:37.117Z,1.37
2017-08-13T17:14:03.534Z,2.30
2017-08-13T17:16:29.839Z,1.50
2017-08-13T17:18:56.141Z,1.50
2017-08-13T17:21:22.425Z,1.63
2017-08-13T17:23:49.060Z,1.60
2017-08-13T17:26:15.596Z,1.40
2017-08-13T17:28:42.130Z,1.87
2017-08-13T17:31:08.478Z,1.60
2017-08-13T17:33:34.792Z,1.47
2017-08-13T17:36:01.326Z,1.60
2017-08-13T17:38:27.863Z,1.40
2017-08-13T17:40:54.147Z,1.43
2017-08-13T17:43:20.575Z,1.60
2017-08-13T17:45:47.064Z,1.60
2017-08-13T17:48:13.694Z,1.67
2017-08-13T17:50:40.030Z,1.50
2017-08-13T17:53:06.428Z,1.63
2017-08-13T17:55:32.758Z,1.77
2017-08-13T17:57:59.234Z,1.40
2017-08-13T18:00:25.740Z,1.57
2017-08-13T18:02:52.039Z,1.87
2017-08-13T18:05:18.417Z,1.40
2017-08-13T18:07:44.716Z,6.33
2017-08-13T18:10:11.195Z,2.37
2017-08-13T18:12:37.556Z,4.40
2017-08-13T18:15:04.737Z,6.23
2017-08-13T18:17:37.921Z,4.13
2017-08-13T18:20:05.252Z,2.63
2017-08-13T18:22:31.615Z,2.47
2017-08-13T18:24:58.031Z,2.03
2017-08-13T18:27:24.343Z,2.50
2017-08-13T18:29:50.615Z,2.73
2017-08-13T18:32:16.893Z,2.50
2017-08-13T18:34:43.176Z,3.07
2017-08-13T18:37:09.470Z,2.53
2017-08-13T18:39:35.795Z,2.40
2017-08-13T18:42:02.073Z,2.27
2017-08-13T18:44:28.335Z,2.53
2017-08-13T18:46:55.389Z,2.30
2017-08-13T18:49:21.652Z,2.77
2017-08-13T18:51:47.926Z,2.77
2017-08-13T18:54:14.972Z,2.60
2017-08-13T18:56:41.239Z,2.90
2017-08-13T18:59:07.506Z,2.50
2017-08-13T19:01:33.815Z,3.20
2017-08-13T19:04:00.155Z,3.50
2017-08-13T19:06:26.425Z,3.40
2017-08-13T19:08:52.696Z,2.53
2017-08-13T19:11:18.944Z,2.33
2017-08-13T19:13:45.200Z,2.43
2017-08-13T19:16:12.362Z,2.60
2017-08-13T19:18:38.670Z,2.47
2017-08-13T19:21:04.962Z,2.80
2017-08-13T19:23:31.238Z,3.10
2017-08-13T19:25:58.407Z,2.50
2017-08-13T19:28:24.697Z,2.70
2017-08-13T19:30:50.991Z,2.30
2017-08-13T19:33:17.253Z,3.10
2017-08-13T19:35:43.513Z,3.10
2017-08-13T19:38:09.802Z,2.70
2017-08-13T19:40:36.083Z,2.60
2017-08-13T19:43:02.363Z,3.77
2017-08-13T19:45:28.647Z,3.20
2017-08-13T19:47:55.658Z,2.60
2017-08-13T19:50:21.919Z,2.87
2017-08-13T19:52:48.189Z,2.70
2017-08-13T19:55:14.486Z,2.63
2017-08-13T19:57:41.496Z,2.60
2017-08-13T20:00:07.772Z,3.70
2017-08-13T20:02:34.071Z,4.37
2017-08-13T20:05:00.354Z,3.90
2017-08-13T20:07:26.673Z,3.97
2017-08-13T20:09:52.940Z,4.00
2017-08-13T20:12:19.209Z,3.93
2017-08-13T20:14:46.210Z,4.73
2017-08-13T20:17:12.479Z,5.87
2017-08-13T20:19:39.499Z,6.80
2017-08-13T20:22:05.924Z,10.13
2017-08-13T20:24:32.195Z,13.80
2017-08-13T20:26:59.196Z,16.57
2017-08-13T20:29:25.470Z,21.70
2017-08-13T20:31:52.478Z,14.73
2017-08-13T20:34:18.748Z,13.93
2017-08-13T20:36:45.748Z,13.63
2017-08-13T20:39:12.017Z,11.47
2017-08-13T20:41:38.262Z,11.90
2017-08-13T20:44:05.293Z,11.53
2017-08-13T20:46:32.294Z,9.93
2017-08-13T20:48:58.545Z,8.60
2017-08-13T20:51:24.817Z,7.70
2017-08-13T20:53:51.069Z,7.50
2017-08-13T20:56:17.365Z,7.77
2017-08-13T20:58:43.663Z,7.33
2017-08-13T21:01:09.949Z,6.70
2017-08-13T21:03:36.225Z,6.33
2017-08-13T21:06:02.504Z,5.93
2017-08-13T21:08:28.768Z,6.43
2017-08-13T21:10:55.053Z,5.83
2017-08-13T21:13:21.308Z,6.20
2017-08-13T21:15:47.606Z,5.70
2017-08-13T21:18:13.896Z,5.90
2017-08-13T21:20:40.928Z,5.43
2017-08-13T21:23:07.225Z,4.97
2017-08-13T21:25:33.488Z,5.10
2017-08-13T21:27:59.769Z,4.63
2017-08-13T21:30:26.045Z,5.13
2017-08-13T21:32:52.337Z,3.97
2017-08-13T21:35:18.617Z,4.30
2017-08-13T21:37:45.655Z,4.40
2017-08-13T21:40:11.911Z,4.20
2017-08-13T21:42:38.953Z,3.77
2017-08-13T21:45:05.971Z,3.73
2017-08-13T21:47:32.273Z,4.83
2017-08-13T21:49:58.543Z,4.03
2017-08-13T21:52:24.836Z,3.77
2017-08-13T21:54:51.103Z,3.50
2017-08-13T21:57:17.366Z,3.87
2017-08-13T21:59:43.639Z,3.37
2017-08-13T22:02:09.892Z,3.60
2017-08-13T22:04:36.187Z,3.40
2017-08-13T22:07:02.449Z,3.40
2017-08-13T22:09:28.718Z,3.50
2017-08-13T22:11:54.988Z,3.83
2017-08-13T22:14:21.299Z,3.63
2017-08-13T22:16:47.546Z,3.50
2017-08-13T22:19:13.843Z,3.60
2017-08-13T22:21:40.100Z,3.63
2017-08-13T22:24:06.360Z,3.23
2017-08-13T22:26:33.373Z,3.40
2017-08-13T22:28:59.661Z,3.60
2017-08-13T22:31:26.852Z,3.43
2017-08-13T22:33:53.106Z,3.63
2017-08-13T22:36:20.155Z,3.87
2017-08-13T22:38:46.428Z,3.83
2017-08-13T22:41:12.700Z,3.40
2017-08-13T22:43:38.961Z,3.50
2017-08-13T22:46:05.977Z,3.60
2017-08-13T22:48:32.235Z,3.53
2017-08-13T22:50:58.539Z,3.30
2017-08-13T22:53:24.829Z,3.77
2017-08-13T22:55:51.097Z,3.73
2017-08-13T22:58:17.365Z,3.33
2017-08-13T23:00:43.639Z,3.20
2017-08-13T23:03:09.925Z,3.30
2017-08-13T23:05:36.185Z,3.53
2017-08-13T23:08:02.505Z,3.60
2017-08-13T23:10:28.745Z,3.30
2017-08-13T23:12:55.038Z,3.00
2017-08-13T23:15:21.319Z,3.30
2017-08-13T23:17:47.607Z,3.00
2017-08-13T23:20:13.900Z,3.10
2017-08-13T23:22:40.943Z,3.27
2017-08-13T23:25:07.953Z,3.20
2017-08-13T23:27:34.256Z,3.80
2017-08-13T23:30:00.521Z,3.53
2017-08-13T23:32:26.770Z,3.37
2017-08-13T23:34:53.047Z,3.20
2017-08-13T23:37:19.307Z,3.20
2017-08-13T23:39:45.577Z,3.40
2017-08-13T23:42:12.592Z,3.00
2017-08-13T23:44:38.868Z,3.60
2017-08-13T23:47:05.167Z,3.50
2017-08-13T23:49:31.438Z,3.00
2017-08-13T23:51:57.708Z,3.43
2017-08-13T23:54:24.013Z,2.63
2017-08-13T23:56:50.274Z,3.50
2017-08-13T23:59:17.316Z,3.23
